createdAt,value
2023-01-27T00:01:36.479Z,100936.00
2023-01-27T00:04:05.168Z,100932.30
2023-01-27T00:06:36.851Z,100933.87
2023-01-27T00:09:06.026Z,100928.98
2023-01-27T00:11:52.983Z,100925.02
2023-01-27T00:14:22.637Z,100927.10
2023-01-27T00:16:51.114Z,100921.23
2023-01-27T00:19:19.597Z,100923.14
2023-01-27T00:22:06.337Z,100927.36
2023-01-27T00:24:38.096Z,100929.16
2023-01-27T00:27:08.977Z,100929.68
2023-01-27T00:29:40.544Z,100926.10
2023-01-27T00:32:28.811Z,100922.29
2023-01-27T00:34:57.719Z,100922.34
2023-01-27T00:37:27.016Z,100923.80
2023-01-27T00:39:56.339Z,100926.90
2023-01-27T00:42:25.034Z,100926.02
2023-01-27T00:45:12.114Z,100930.83
2023-01-27T00:47:41.904Z,100938.34
2023-01-27T00:50:12.127Z,100944.06
2023-01-27T00:52:40.877Z,100947.46
2023-01-27T00:55:10.384Z,100948.52
2023-01-27T00:57:39.410Z,100948.30
2023-01-27T01:00:11.367Z,100947.02
2023-01-27T01:02:39.933Z,100947.90
2023-01-27T01:05:09.837Z,100948.80
2023-01-27T01:07:38.433Z,100949.42
2023-01-27T01:10:11.859Z,100958.19
2023-01-27T01:12:40.687Z,100959.61
2023-01-27T01:15:10.639Z,100941.76
2023-01-27T01:17:40.390Z,100959.55
2023-01-27T01:20:12.057Z,100960.83
2023-01-27T01:22:40.711Z,100956.14
2023-01-27T01:25:09.775Z,100952.59
2023-01-27T01:27:38.172Z,100955.41
2023-01-27T01:30:10.230Z,100950.05
2023-01-27T01:32:38.772Z,100953.70
2023-01-27T01:35:08.621Z,100955.55
2023-01-27T01:37:37.077Z,100952.23
2023-01-27T01:40:11.793Z,100953.72
2023-01-27T01:42:54.577Z,100961.98
2023-01-27T01:45:49.207Z,100960.65
2023-01-27T01:48:23.038Z,100957.83
2023-01-27T01:50:57.709Z,100958.08
2023-01-27T01:53:32.421Z,100956.48
2023-01-27T01:56:06.262Z,100960.74
2023-01-27T01:58:36.373Z,100958.38
2023-01-27T02:01:06.693Z,100954.84
2023-01-27T02:03:39.455Z,100950.23
2023-01-27T02:06:07.078Z,100946.53
2023-01-27T02:08:39.933Z,100950.77
2023-01-27T02:11:08.530Z,100952.58
2023-01-27T02:13:39.954Z,100955.17
2023-01-27T02:16:11.626Z,100954.91
2023-01-27T02:18:41.899Z,100955.23
2023-01-27T02:21:10.865Z,100953.91
2023-01-27T02:23:55.147Z,100950.40
2023-01-27T02:26:28.617Z,100947.65
2023-01-27T02:28:58.710Z,100952.48
2023-01-27T02:31:27.897Z,100956.30
2023-01-27T02:34:03.075Z,100960.15
2023-01-27T02:36:34.339Z,100961.61
2023-01-27T02:39:05.023Z,100967.83
2023-01-27T02:41:37.336Z,100966.72
2023-01-27T02:44:06.602Z,100971.05
2023-01-27T02:46:35.401Z,100968.82
2023-01-27T02:49:04.499Z,100963.88
2023-01-27T02:51:32.917Z,100972.91
2023-01-27T02:54:01.366Z,100974.02
2023-01-27T02:56:30.300Z,100977.85
2023-01-27T02:58:59.053Z,100971.16
2023-01-27T03:01:32.983Z,100975.89
2023-01-27T03:04:01.632Z,100970.04
2023-01-27T03:06:30.185Z,100971.67
2023-01-27T03:08:59.215Z,100976.42
2023-01-27T03:11:48.992Z,100981.63
2023-01-27T03:14:17.519Z,100981.67
2023-01-27T03:17:06.973Z,100980.12
2023-01-27T03:19:35.416Z,100980.14
2023-01-27T03:22:04.468Z,100986.23
2023-01-27T03:24:34.439Z,100979.48
2023-01-27T03:27:06.299Z,100980.77
2023-01-27T03:30:01.099Z,100975.63
2023-01-27T03:32:32.952Z,100972.13
2023-01-27T03:35:33.529Z,100970.80
2023-01-27T03:38:21.065Z,100970.71
2023-01-27T03:41:07.421Z,100972.46
2023-01-27T03:43:54.161Z,100970.04
2023-01-27T03:46:22.772Z,100966.74
2023-01-27T03:48:55.052Z,100965.29
2023-01-27T03:51:24.895Z,100968.03
2023-01-27T03:53:53.539Z,100970.60
2023-01-27T03:56:22.390Z,100969.83
2023-01-27T03:58:50.999Z,100965.95
2023-01-27T04:01:21.806Z,100964.59
2023-01-27T04:04:09.476Z,100967.05
2023-01-27T04:06:53.461Z,100976.09
2023-01-27T04:09:23.645Z,100983.02
2023-01-27T04:11:55.671Z,100982.45
2023-01-27T04:14:25.993Z,100985.80
2023-01-27T04:16:56.821Z,100985.02
2023-01-27T04:19:25.531Z,100987.76
2023-01-27T04:21:54.869Z,100993.39
2023-01-27T04:24:24.061Z,100995.02
2023-01-27T04:26:55.561Z,100997.70
2023-01-27T04:29:26.108Z,101001.09
2023-01-27T04:31:55.241Z,101000.72
2023-01-27T04:34:24.021Z,101009.64
2023-01-27T04:36:52.868Z,101009.67
2023-01-27T04:39:21.752Z,101012.77
2023-01-27T04:41:50.924Z,101013.52
2023-01-27T04:44:19.745Z,101016.36
2023-01-27T04:46:48.661Z,101014.28
2023-01-27T04:49:17.664Z,101016.27
2023-01-27T04:51:47.451Z,101016.00
2023-01-27T04:54:16.982Z,101013.19
2023-01-27T04:56:56.840Z,101012.50
2023-01-27T04:59:26.070Z,101008.76
2023-01-27T05:01:54.577Z,101014.55
2023-01-27T05:04:24.752Z,101025.84
2023-01-27T05:06:53.519Z,101025.71
2023-01-27T05:09:22.383Z,101024.95
2023-01-27T05:11:50.888Z,101026.04
2023-01-27T05:14:22.734Z,101030.39
2023-01-27T05:16:51.996Z,101031.85
2023-01-27T05:19:20.428Z,101030.08
2023-01-27T05:21:48.795Z,101027.39
2023-01-27T05:24:17.290Z,101032.14
2023-01-27T05:26:45.944Z,101035.15
2023-01-27T05:29:14.257Z,101034.84
2023-01-27T05:31:42.625Z,101034.77
2023-01-27T05:34:11.034Z,101035.32
2023-01-27T05:36:39.421Z,101033.55
2023-01-27T05:39:10.985Z,101030.01
2023-01-27T05:41:39.345Z,101034.70
2023-01-27T05:44:09.916Z,101036.91
2023-01-27T05:46:40.862Z,101041.46
2023-01-27T05:49:09.634Z,101040.44
2023-01-27T05:51:39.326Z,101043.05
2023-01-27T05:54:08.656Z,101045.77
2023-01-27T05:56:37.378Z,101045.20
2023-01-27T05:59:06.223Z,101047.67
2023-01-27T06:01:36.785Z,101045.29
2023-01-27T06:04:05.667Z,101047.31
2023-01-27T06:06:34.880Z,101043.80
2023-01-27T06:09:03.356Z,101045.66
2023-01-27T06:11:31.731Z,101049.00
2023-01-27T06:14:00.047Z,101051.04
2023-01-27T06:16:28.898Z,101053.65
2023-01-27T06:18:57.839Z,101053.84
2023-01-27T06:21:26.221Z,101054.09
2023-01-27T06:23:55.247Z,101057.85
2023-01-27T06:26:23.664Z,101058.96
2023-01-27T06:28:52.084Z,101059.76
2023-01-27T06:31:22.344Z,101057.54
2023-01-27T06:33:52.081Z,101063.46
2023-01-27T06:36:21.934Z,101067.75
2023-01-27T06:38:50.994Z,101066.80
2023-01-27T06:41:20.906Z,101067.09
2023-01-27T06:43:49.353Z,101065.17
2023-01-27T06:46:18.134Z,101063.69
2023-01-27T06:48:46.959Z,101071.04
2023-01-27T06:51:15.784Z,101065.43
2023-01-27T06:53:44.231Z,101067.16
2023-01-27T06:56:12.717Z,101059.99
2023-01-27T06:58:42.441Z,101059.19
2023-01-27T07:01:11.169Z,101065.02
2023-01-27T07:03:39.550Z,101065.47
2023-01-27T07:06:10.253Z,101062.16
2023-01-27T07:08:38.757Z,101061.00
2023-01-27T07:11:07.668Z,101058.96
2023-01-27T07:13:36.125Z,101059.33
2023-01-27T07:16:05.910Z,101063.17
2023-01-27T07:18:34.727Z,101060.95
2023-01-27T07:21:05.114Z,101063.52
2023-01-27T07:23:33.875Z,101060.81
2023-01-27T07:26:05.728Z,101067.05
2023-01-27T07:28:40.992Z,101069.46
2023-01-27T07:31:09.949Z,101073.80
2023-01-27T07:33:38.671Z,101076.73
2023-01-27T07:36:07.492Z,101076.82
2023-01-27T07:38:35.873Z,101077.67
2023-01-27T07:41:06.049Z,101081.40
2023-01-27T07:43:34.821Z,101083.55
2023-01-27T07:46:09.373Z,101096.59
2023-01-27T07:48:37.832Z,101094.77
2023-01-27T07:51:06.295Z,101100.30
2023-01-27T07:53:35.177Z,101100.73
2023-01-27T07:56:03.908Z,101102.02
2023-01-27T07:58:32.278Z,101105.25
2023-01-27T08:01:05.682Z,101105.77
2023-01-27T08:03:35.260Z,101110.97
2023-01-27T08:06:06.250Z,101114.95
2023-01-27T08:08:37.227Z,101116.23
2023-01-27T08:11:08.749Z,101119.48
2023-01-27T08:13:37.387Z,101117.31
2023-01-27T08:16:08.143Z,101122.65
2023-01-27T08:18:36.684Z,101129.87
2023-01-27T08:21:07.847Z,101127.70
2023-01-27T08:23:36.912Z,101131.40
2023-01-27T08:26:06.946Z,101133.32
2023-01-27T08:28:37.145Z,101139.86
2023-01-27T08:31:07.762Z,101142.57
2023-01-27T08:33:36.963Z,101139.02
2023-01-27T08:36:08.417Z,101144.95
2023-01-27T08:38:37.957Z,101144.58
2023-01-27T08:41:07.846Z,101145.02
2023-01-27T08:43:36.608Z,101144.31
2023-01-27T08:46:08.399Z,101147.34
2023-01-27T08:48:38.209Z,101153.28
2023-01-27T08:51:08.700Z,101152.05
2023-01-27T08:53:37.819Z,101151.45
2023-01-27T08:56:10.563Z,101153.95
2023-01-27T08:58:39.245Z,101153.45
2023-01-27T09:01:07.874Z,101154.66
2023-01-27T09:03:36.930Z,101155.39
2023-01-27T09:06:09.029Z,101152.84
2023-01-27T09:08:37.818Z,101152.37
2023-01-27T09:11:10.958Z,101152.61
2023-01-27T09:13:39.797Z,101156.95
2023-01-27T09:16:10.001Z,101157.12
2023-01-27T09:18:38.690Z,101157.80
2023-01-27T09:21:07.424Z,101161.73
2023-01-27T09:23:35.794Z,101159.81
2023-01-27T09:26:04.716Z,101161.36
2023-01-27T09:28:33.636Z,101161.31
2023-01-27T09:31:02.367Z,101162.45
2023-01-27T09:33:31.007Z,101162.89
2023-01-27T09:36:03.002Z,101160.10
2023-01-27T09:38:36.226Z,101163.67
2023-01-27T09:41:22.939Z,101162.06
2023-01-27T09:44:11.874Z,101162.05
2023-01-27T09:46:59.545Z,101165.79
2023-01-27T09:49:49.529Z,101164.36
2023-01-27T09:52:47.281Z,101164.58
2023-01-27T09:55:25.849Z,101166.16
2023-01-27T09:58:04.393Z,101168.49
2023-01-27T10:00:45.869Z,101172.30
2023-01-27T10:03:33.649Z,101185.45
2023-01-27T10:06:28.383Z,101184.60
2023-01-27T10:09:28.298Z,101186.02
2023-01-27T10:12:05.480Z,101187.27
2023-01-27T10:14:43.155Z,101189.06
2023-01-27T10:17:25.646Z,101193.14
2023-01-27T10:20:18.742Z,101192.52
2023-01-27T10:22:52.815Z,101202.53
2023-01-27T10:25:34.918Z,101204.05
2023-01-27T10:28:10.869Z,101196.84
2023-01-27T10:30:49.811Z,101194.43
2023-01-27T10:33:20.300Z,101197.23
2023-01-27T10:35:52.993Z,101200.09
2023-01-27T10:38:34.555Z,101197.89
2023-01-27T10:41:16.230Z,101196.61
2023-01-27T10:43:58.745Z,101199.08
2023-01-27T10:46:34.305Z,101198.87
2023-01-27T10:49:07.964Z,101205.89
2023-01-27T10:51:42.298Z,101207.77
2023-01-27T10:54:17.327Z,101202.61
2023-01-27T10:56:51.111Z,101207.49
2023-01-27T10:59:26.196Z,101211.13
2023-01-27T11:02:00.033Z,101209.67
2023-01-27T11:04:38.332Z,101210.35
2023-01-27T11:07:07.308Z,101206.95
2023-01-27T11:09:49.159Z,101208.68
2023-01-27T11:12:25.294Z,101208.83
2023-01-27T11:14:54.435Z,101200.77
2023-01-27T11:17:31.764Z,101204.71
2023-01-27T11:20:12.415Z,101197.44
2023-01-27T11:22:53.239Z,101208.34
2023-01-27T11:25:28.228Z,101214.90
2023-01-27T11:28:24.759Z,101216.27
2023-01-27T11:31:02.694Z,101222.05
2023-01-27T11:33:45.611Z,101220.21
2023-01-27T11:36:16.322Z,101224.57
2023-01-27T11:38:45.295Z,101227.63
2023-01-27T11:41:14.415Z,101228.45
2023-01-27T11:43:43.244Z,101228.40
2023-01-27T11:46:17.830Z,101219.23
2023-01-27T11:48:50.956Z,101224.15
2023-01-27T11:51:25.095Z,101221.32
2023-01-27T11:54:02.948Z,101223.65
2023-01-27T11:56:34.373Z,101223.65
2023-01-27T11:59:10.831Z,101228.86
2023-01-27T12:01:47.474Z,101228.69
2023-01-27T12:04:23.970Z,101231.15
2023-01-27T12:06:59.302Z,101229.95
2023-01-27T12:09:34.489Z,101229.67
2023-01-27T12:12:22.908Z,101222.34
2023-01-27T12:14:54.304Z,101227.66
2023-01-27T12:17:33.061Z,101224.73
2023-01-27T12:20:06.491Z,101227.19
2023-01-27T12:22:40.143Z,101221.16
2023-01-27T12:25:20.049Z,101213.41
2023-01-27T12:27:52.752Z,101211.61
2023-01-27T12:30:22.024Z,101213.18
2023-01-27T12:32:51.867Z,101216.21
2023-01-27T12:35:27.607Z,101214.85
2023-01-27T12:38:01.502Z,101217.50
2023-01-27T12:40:32.299Z,101216.34
2023-01-27T12:43:13.855Z,101219.14
2023-01-27T12:45:43.841Z,101218.40
2023-01-27T12:48:21.265Z,101220.64
2023-01-27T12:51:13.690Z,101218.95
2023-01-27T12:53:43.473Z,101218.73
2023-01-27T12:56:14.607Z,101217.91
2023-01-27T12:58:45.745Z,101220.79
2023-01-27T13:01:27.655Z,101216.08
2023-01-27T13:03:59.834Z,101218.08
2023-01-27T13:06:41.932Z,101221.39
2023-01-27T13:09:27.594Z,101227.55
2023-01-27T13:12:00.296Z,101228.66
2023-01-27T13:14:29.097Z,101229.40
2023-01-27T13:16:58.635Z,101229.23
2023-01-27T13:19:36.177Z,101233.88
2023-01-27T13:22:05.791Z,101232.50
2023-01-27T13:24:42.281Z,101240.55
2023-01-27T13:27:15.420Z,101244.02
2023-01-27T13:29:59.676Z,101243.79
2023-01-27T13:32:32.823Z,101249.69
2023-01-27T13:35:08.242Z,101250.16
2023-01-27T13:37:42.045Z,101250.21
2023-01-27T13:40:18.582Z,101250.52
2023-01-27T13:42:53.075Z,101254.04
2023-01-27T13:45:23.978Z,101251.46
2023-01-27T13:47:58.128Z,101249.23
2023-01-27T13:50:34.053Z,101253.02
2023-01-27T13:53:04.046Z,101254.27
2023-01-27T13:55:47.002Z,101252.27
2023-01-27T13:58:25.628Z,101257.36
2023-01-27T14:01:02.101Z,101255.99
2023-01-27T14:03:51.986Z,101258.24
2023-01-27T14:06:36.089Z,101259.34
2023-01-27T14:09:15.816Z,101257.65
2023-01-27T14:11:51.275Z,101257.66
2023-01-27T14:14:32.196Z,101249.23
2023-01-27T14:17:14.247Z,101256.34
2023-01-27T14:19:53.513Z,101256.38
2023-01-27T14:22:32.764Z,101261.34
2023-01-27T14:25:19.471Z,101257.89
2023-01-27T14:30:34.566Z,101260.35
2023-01-27T14:33:12.102Z,101257.83
2023-01-27T14:35:45.617Z,101260.17
2023-01-27T14:38:26.479Z,101260.92
2023-01-27T14:41:09.983Z,101259.40
2023-01-27T14:43:47.685Z,101264.23
2023-01-27T14:46:28.818Z,101269.63
2023-01-27T14:49:07.605Z,101266.54
2023-01-27T14:51:44.134Z,101269.30
2023-01-27T14:54:28.372Z,101268.02
2023-01-27T14:57:25.899Z,101273.05
2023-01-27T15:00:05.023Z,101272.61
2023-01-27T15:02:43.826Z,101268.02
2023-01-27T15:05:21.944Z,101274.54
2023-01-27T15:07:57.915Z,101278.23
2023-01-27T15:10:28.466Z,101279.29
2023-01-27T15:13:26.471Z,101283.95
2023-01-27T15:16:32.952Z,101285.73
2023-01-27T15:19:27.258Z,101286.04
2023-01-27T15:22:31.256Z,101288.29
2023-01-27T15:25:19.640Z,101285.98
2023-01-27T15:27:52.447Z,101286.47
2023-01-27T15:30:29.319Z,101287.76
2023-01-27T15:32:58.096Z,101289.16
2023-01-27T15:35:43.902Z,101290.52
2023-01-27T15:38:32.448Z,101272.34
2023-01-27T15:41:07.525Z,101297.89
2023-01-27T15:43:39.987Z,101292.63
2023-01-27T15:46:25.089Z,101295.56
2023-01-27T15:48:55.670Z,101293.73
2023-01-27T15:51:25.138Z,101293.92
2023-01-27T15:53:56.522Z,101295.04
2023-01-27T15:56:48.113Z,101299.00
2023-01-27T15:59:20.668Z,101298.79
2023-01-27T16:01:59.005Z,101296.41
2023-01-27T16:04:28.975Z,101300.13
2023-01-27T16:07:01.458Z,101303.08
2023-01-27T16:09:33.676Z,101297.95
2023-01-27T16:12:04.686Z,101300.55
2023-01-27T16:14:44.273Z,101302.96
2023-01-27T16:17:24.651Z,101305.50
2023-01-27T16:20:09.706Z,101308.23
2023-01-27T16:22:40.540Z,101308.64
2023-01-27T16:25:24.641Z,101308.15
2023-01-27T16:27:58.943Z,101313.77
2023-01-27T16:30:30.869Z,101319.27
2023-01-27T16:33:05.712Z,101316.77
2023-01-27T16:35:41.919Z,101318.59
2023-01-27T16:38:22.832Z,101322.09
2023-01-27T16:40:56.346Z,101324.27
2023-01-27T16:43:31.070Z,101329.81
2023-01-27T16:46:01.400Z,101327.66
2023-01-27T16:48:36.024Z,101329.05
2023-01-27T16:51:14.828Z,101334.08
2023-01-27T16:53:49.027Z,101332.91
2023-01-27T16:56:22.167Z,101326.70
2023-01-27T16:58:51.826Z,101326.06
2023-01-27T17:01:25.535Z,101332.63
2023-01-27T17:04:00.626Z,101326.40
2023-01-27T17:06:32.394Z,101338.58
2023-01-27T17:09:01.801Z,101340.60
2023-01-27T17:11:32.688Z,101347.31
2023-01-27T17:14:02.696Z,101347.95
2023-01-27T17:16:35.021Z,101349.84
2023-01-27T17:19:09.009Z,101358.59
2023-01-27T17:21:41.917Z,101354.63
2023-01-27T17:24:18.408Z,101356.75
2023-01-27T17:26:54.655Z,101359.52
2023-01-27T17:29:27.056Z,101359.05
2023-01-27T17:31:55.745Z,101361.17
2023-01-27T17:34:25.017Z,101356.98
2023-01-27T17:37:14.411Z,101353.93
2023-01-27T17:39:44.499Z,101357.39
2023-01-27T17:42:18.505Z,101360.35
2023-01-27T17:44:48.542Z,101362.48
2023-01-27T17:47:18.780Z,101364.97
2023-01-27T17:49:49.530Z,101363.70
2023-01-27T17:52:22.355Z,101363.60
2023-01-27T17:54:51.899Z,101368.02
2023-01-27T17:57:22.508Z,101365.30
2023-01-27T18:00:00.675Z,101370.50
2023-01-27T18:02:33.296Z,101377.69
2023-01-27T18:05:05.251Z,101379.11
2023-01-27T18:07:34.493Z,101381.63
2023-01-27T18:10:23.745Z,101381.53
2023-01-27T18:12:54.131Z,101385.83
2023-01-27T18:15:39.044Z,101386.55
2023-01-27T18:18:21.161Z,101386.95
2023-01-27T18:21:01.945Z,101393.47
2023-01-27T18:23:32.830Z,101393.24
2023-01-27T18:26:16.389Z,101394.08
2023-01-27T18:28:49.571Z,101399.66
2023-01-27T18:31:21.627Z,101396.92
2023-01-27T18:33:58.818Z,101397.83
2023-01-27T18:36:33.965Z,101400.69
2023-01-27T18:39:03.289Z,101401.84
2023-01-27T18:41:34.761Z,101411.61
2023-01-27T18:44:03.053Z,101414.54
2023-01-27T18:46:31.646Z,101413.41
2023-01-27T18:49:00.508Z,101415.89
2023-01-27T18:51:29.295Z,101414.20
2023-01-27T18:53:57.603Z,101419.98
2023-01-27T18:56:26.168Z,101426.73
2023-01-27T18:58:54.530Z,101426.42
2023-01-27T19:01:24.224Z,101428.02
2023-01-27T19:03:56.483Z,101426.70
2023-01-27T19:06:26.065Z,101430.21
2023-01-27T19:08:54.516Z,101419.32
2023-01-27T19:11:26.059Z,101426.60
2023-01-27T19:13:55.077Z,101439.92
2023-01-27T19:16:25.700Z,101441.71
2023-01-27T19:18:55.804Z,101443.66
2023-01-27T19:21:25.006Z,101448.60
2023-01-27T19:23:53.531Z,101447.26
2023-01-27T19:26:23.577Z,101452.24
2023-01-27T19:28:55.158Z,101449.13
2023-01-27T19:31:24.622Z,101447.79
2023-01-27T19:33:53.408Z,101451.05
2023-01-27T19:36:27.307Z,101452.56
2023-01-27T19:39:01.243Z,101452.80
2023-01-27T19:41:29.712Z,101456.56
2023-01-27T19:43:58.368Z,101457.20
2023-01-27T19:46:27.103Z,101453.65
2023-01-27T19:48:56.176Z,101458.23
2023-01-27T19:51:26.191Z,101456.99
2023-01-27T19:53:54.632Z,101454.49
2023-01-27T19:56:24.683Z,101457.27
2023-01-27T19:58:54.348Z,101461.92
2023-01-27T20:01:24.214Z,101463.75
2023-01-27T20:03:53.628Z,101465.47
2023-01-27T20:06:24.479Z,101468.66
2023-01-27T20:08:54.567Z,101464.35
2023-01-27T20:11:33.507Z,101467.19
2023-01-27T20:14:03.139Z,101465.84
2023-01-27T20:16:32.400Z,101469.61
2023-01-27T20:19:03.876Z,101471.95
2023-01-27T20:21:33.784Z,101473.27
2023-01-27T20:24:03.761Z,101474.48
2023-01-27T20:26:32.764Z,101473.75
2023-01-27T20:29:01.077Z,101474.46
2023-01-27T20:31:29.780Z,101475.03
2023-01-27T20:33:59.225Z,101480.58
2023-01-27T20:36:28.067Z,101478.52
2023-01-27T20:38:56.339Z,101480.17
2023-01-27T20:41:24.991Z,101476.36
2023-01-27T20:43:56.453Z,101477.71
2023-01-27T20:46:25.318Z,101472.84
2023-01-27T20:48:53.989Z,101481.59
2023-01-27T20:51:22.496Z,101478.80
2023-01-27T20:53:51.287Z,101481.45
2023-01-27T20:56:21.873Z,101480.60
2023-01-27T20:58:50.797Z,101482.13
2023-01-27T21:01:22.005Z,101475.73
2023-01-27T21:03:51.233Z,101479.60
2023-01-27T21:06:20.436Z,101477.86
2023-01-27T21:08:49.863Z,101481.63
2023-01-27T21:11:20.677Z,101474.35
2023-01-27T21:13:51.473Z,101477.73
2023-01-27T21:16:20.470Z,101479.64
2023-01-27T21:18:49.248Z,101478.85
2023-01-27T21:21:23.726Z,101476.89
2023-01-27T21:23:52.699Z,101478.42
2023-01-27T21:26:21.896Z,101473.77
2023-01-27T21:28:50.674Z,101476.31
2023-01-27T21:31:23.551Z,101477.80
2023-01-27T21:33:51.976Z,101480.20
2023-01-27T21:36:20.397Z,101480.49
2023-01-27T21:38:52.285Z,101479.17
2023-01-27T21:41:41.415Z,101481.79
2023-01-27T21:44:34.814Z,101482.88
2023-01-27T21:47:03.219Z,101486.98
2023-01-27T21:49:55.795Z,101486.00
2023-01-27T21:52:25.583Z,101485.00
2023-01-27T21:54:54.190Z,101485.08
2023-01-27T21:57:22.844Z,101479.17
2023-01-27T21:59:51.452Z,101480.11
2023-01-27T22:02:19.832Z,101478.43
2023-01-27T22:04:49.402Z,101481.20
2023-01-27T22:07:19.702Z,101483.90
2023-01-27T22:09:49.656Z,101480.61
2023-01-27T22:12:21.454Z,101478.89
2023-01-27T22:14:49.999Z,101475.11
2023-01-27T22:17:20.117Z,101479.43
2023-01-27T22:19:49.277Z,101481.39
2023-01-27T22:22:18.601Z,101487.50
2023-01-27T22:24:47.120Z,101486.03
2023-01-27T22:27:15.472Z,101480.69
2023-01-27T22:29:43.918Z,101476.38
2023-01-27T22:32:12.695Z,101478.14
2023-01-27T22:34:42.770Z,101469.22
2023-01-27T22:37:11.163Z,101476.23
2023-01-27T22:39:41.505Z,101479.05
2023-01-27T22:42:10.680Z,101482.67
2023-01-27T22:44:39.614Z,101489.31
2023-01-27T22:47:08.079Z,101492.42
2023-01-27T22:49:36.443Z,101491.67
2023-01-27T22:52:04.971Z,101492.69
2023-01-27T22:54:33.314Z,101491.63
2023-01-27T22:57:01.892Z,101485.05
2023-01-27T22:59:30.295Z,101485.67
2023-01-27T23:01:58.789Z,101485.71
2023-01-27T23:04:27.316Z,101483.89
2023-01-27T23:06:55.852Z,101477.13
2023-01-27T23:09:24.527Z,101478.52
2023-01-27T23:11:53.171Z,101477.82
2023-01-27T23:14:21.854Z,101470.86
2023-01-27T23:16:52.093Z,101464.20
2023-01-27T23:19:21.558Z,101468.92
2023-01-27T23:21:49.877Z,101463.96
2023-01-27T23:24:18.616Z,101461.27
2023-01-27T23:26:47.546Z,101453.54
2023-01-27T23:29:24.704Z,101451.85
2023-01-27T23:31:54.107Z,101453.20
2023-01-27T23:34:23.058Z,101452.48
2023-01-27T23:36:51.441Z,101451.39
2023-01-27T23:39:19.998Z,101447.16
2023-01-27T23:41:48.428Z,101447.37
2023-01-27T23:44:17.252Z,101449.53
2023-01-27T23:46:45.745Z,101453.55
2023-01-27T23:49:14.774Z,101456.44
2023-01-27T23:51:43.115Z,101451.73
2023-01-27T23:54:11.505Z,101451.55
2023-01-27T23:56:40.768Z,101451.41
2023-01-27T23:59:11.019Z,101449.15
